createdAt,value
2023-04-17T00:00:58.192Z,91.06
2023-04-17T00:01:55.677Z,91.06
2023-04-17T00:02:53.129Z,91.01
2023-04-17T00:03:52.714Z,90.14
2023-04-17T00:04:52.617Z,90.43
2023-04-17T00:05:49.404Z,90.48
2023-04-17T00:06:46.038Z,90.82
2023-04-17T00:07:43.640Z,89.13
2023-04-17T00:08:40.849Z,87.85
2023-04-17T00:09:37.583Z,87.31
2023-04-17T00:10:34.213Z,87.12
2023-04-17T00:11:30.895Z,86.80
2023-04-17T00:12:27.434Z,87.14
2023-04-17T00:13:24.081Z,86.54
2023-04-17T00:14:20.719Z,87.43
2023-04-17T00:15:17.305Z,87.16
2023-04-17T00:16:13.922Z,87.21
2023-04-17T00:17:10.654Z,87.56
2023-04-17T00:18:07.179Z,89.05
2023-04-17T00:19:03.789Z,88.93
2023-04-17T00:20:00.655Z,89.53
2023-04-17T00:20:57.361Z,90.35
2023-04-17T00:21:53.926Z,90.87
2023-04-17T00:22:50.565Z,91.07
2023-04-17T00:23:47.171Z,90.54
2023-04-17T00:24:43.924Z,91.02
2023-04-17T00:25:40.506Z,90.05
2023-04-17T00:26:37.064Z,90.34
2023-04-17T00:27:33.691Z,89.12
2023-04-17T00:28:30.592Z,87.87
2023-04-17T00:29:27.394Z,87.97
2023-04-17T00:30:24.051Z,87.65
2023-04-17T00:31:20.859Z,87.65
2023-04-17T00:32:17.460Z,88.21
2023-04-17T00:33:14.145Z,87.69
2023-04-17T00:34:10.741Z,88.25
2023-04-17T00:35:07.734Z,87.92
2023-04-17T00:36:04.759Z,87.44
2023-04-17T00:37:01.393Z,87.39
2023-04-17T00:37:57.932Z,87.62
2023-04-17T00:38:54.562Z,87.23
2023-04-17T00:39:51.255Z,87.00
2023-04-17T00:40:48.931Z,87.19
2023-04-17T00:41:45.546Z,87.75
2023-04-17T00:42:42.202Z,86.90
2023-04-17T00:43:39.011Z,86.53
2023-04-17T00:44:35.616Z,86.73
2023-04-17T00:45:32.775Z,86.99
2023-04-17T00:46:29.921Z,86.59
2023-04-17T00:47:27.163Z,86.48
2023-04-17T00:48:24.297Z,86.17
2023-04-17T00:49:20.921Z,86.07
2023-04-17T00:50:17.781Z,85.98
2023-04-17T00:51:14.539Z,85.70
2023-04-17T00:52:11.690Z,85.37
2023-04-17T00:53:08.397Z,86.44
2023-04-17T00:54:05.683Z,86.66
2023-04-17T00:55:02.749Z,86.88
2023-04-17T00:56:01.146Z,87.20
2023-04-17T00:56:58.289Z,86.65
2023-04-17T00:57:56.252Z,87.19
2023-04-17T00:58:54.686Z,85.39
2023-04-17T00:59:51.327Z,85.36
2023-04-17T01:00:49.704Z,85.65
2023-04-17T01:01:46.360Z,85.65
2023-04-17T01:02:43.205Z,86.74
2023-04-17T01:03:40.083Z,86.75
2023-04-17T01:04:36.913Z,85.66
2023-04-17T01:05:35.627Z,85.62
2023-04-17T01:06:32.250Z,86.53
2023-04-17T01:07:30.540Z,86.74
2023-04-17T01:08:27.384Z,86.88
2023-04-17T01:09:24.064Z,86.68
2023-04-17T01:10:20.744Z,86.41
2023-04-17T01:11:17.681Z,86.48
2023-04-17T01:12:22.088Z,86.52
2023-04-17T01:13:18.723Z,87.31
2023-04-17T01:14:15.535Z,86.43
2023-04-17T01:15:12.670Z,86.47
2023-04-17T01:16:09.257Z,86.75
2023-04-17T01:17:05.955Z,87.09
2023-04-17T01:18:03.548Z,86.59
2023-04-17T01:19:00.867Z,86.70
2023-04-17T01:19:57.985Z,87.08
2023-04-17T01:20:54.532Z,86.67
2023-04-17T01:21:51.221Z,87.33
2023-04-17T01:22:53.514Z,88.11
2023-04-17T01:23:54.684Z,87.78
2023-04-17T01:24:51.350Z,86.82
2023-04-17T01:25:48.043Z,86.44
2023-04-17T01:26:44.671Z,86.58
2023-04-17T01:27:42.178Z,86.17
2023-04-17T01:28:38.743Z,86.00
2023-04-17T01:29:35.776Z,85.94
2023-04-17T01:30:32.562Z,85.07
2023-04-17T01:31:29.434Z,84.17
2023-04-17T01:32:26.077Z,85.31
2023-04-17T01:33:22.657Z,85.46
2023-04-17T01:34:19.241Z,85.42
2023-04-17T01:35:16.077Z,84.99
2023-04-17T01:36:12.843Z,85.87
2023-04-17T01:37:09.451Z,85.49
2023-04-17T01:38:06.196Z,85.60
2023-04-17T01:39:02.968Z,85.27
2023-04-17T01:39:59.954Z,86.10
2023-04-17T01:40:56.572Z,86.89
2023-04-17T01:41:56.569Z,86.70
2023-04-17T01:42:53.325Z,86.10
2023-04-17T01:43:50.388Z,85.46
2023-04-17T01:44:47.038Z,85.69
2023-04-17T01:45:43.582Z,86.18
2023-04-17T01:46:40.234Z,87.01
2023-04-17T01:47:37.161Z,87.34
2023-04-17T01:48:34.225Z,86.82
2023-04-17T01:49:30.937Z,85.97
2023-04-17T01:50:27.883Z,84.99
2023-04-17T01:51:24.557Z,85.13
2023-04-17T01:52:21.238Z,85.82
2023-04-17T01:53:17.825Z,86.45
2023-04-17T01:54:15.595Z,85.71
2023-04-17T01:55:12.432Z,85.37
2023-04-17T01:56:09.165Z,85.86
2023-04-17T01:57:05.787Z,86.86
2023-04-17T01:58:02.406Z,87.12
2023-04-17T01:58:59.037Z,86.86
2023-04-17T01:59:56.095Z,86.63
2023-04-17T02:00:52.693Z,86.96
2023-04-17T02:01:50.257Z,86.68
2023-04-17T02:02:47.129Z,87.10
2023-04-17T02:03:44.027Z,87.07
2023-04-17T02:04:40.976Z,86.74
2023-04-17T02:05:37.641Z,86.40
2023-04-17T02:06:34.266Z,85.96
2023-04-17T02:07:30.864Z,86.00
2023-04-17T02:08:27.557Z,86.18
2023-04-17T02:09:24.108Z,86.62
2023-04-17T02:10:20.764Z,86.36
2023-04-17T02:11:17.406Z,85.90
2023-04-17T02:12:13.967Z,85.65
2023-04-17T02:13:10.855Z,84.91
2023-04-17T02:14:08.280Z,85.28
2023-04-17T02:15:05.334Z,85.69
2023-04-17T02:16:02.362Z,85.61
2023-04-17T02:16:59.097Z,85.32
2023-04-17T02:17:55.837Z,85.85
2023-04-17T02:18:52.580Z,85.63
2023-04-17T02:19:49.157Z,85.59
2023-04-17T02:20:45.727Z,86.13
2023-04-17T02:21:42.444Z,86.65
2023-04-17T02:22:39.035Z,85.85
2023-04-17T02:23:35.869Z,86.12
2023-04-17T02:24:32.520Z,85.64
2023-04-17T02:25:29.461Z,85.52
2023-04-17T02:26:26.167Z,86.41
2023-04-17T02:27:22.772Z,87.18
2023-04-17T02:28:19.440Z,85.72
2023-04-17T02:29:16.106Z,86.62
2023-04-17T02:30:12.949Z,86.90
2023-04-17T02:31:10.957Z,87.09
2023-04-17T02:32:07.668Z,87.09
2023-04-17T02:33:04.248Z,86.53
2023-04-17T02:34:00.955Z,86.66
2023-04-17T02:34:57.499Z,86.83
2023-04-17T02:35:54.071Z,86.23
2023-04-17T02:36:50.987Z,85.73
2023-04-17T02:37:47.993Z,85.37
2023-04-17T02:38:44.625Z,85.64
2023-04-17T02:39:41.256Z,85.06
2023-04-17T02:40:37.850Z,85.17
2023-04-17T02:41:34.473Z,85.47
2023-04-17T02:42:31.070Z,85.70
2023-04-17T02:43:27.702Z,85.76
2023-04-17T02:44:24.302Z,85.43
2023-04-17T02:45:20.961Z,85.43
2023-04-17T02:46:17.615Z,85.90
2023-04-17T02:47:14.207Z,85.96
2023-04-17T02:48:10.819Z,86.14
2023-04-17T02:49:07.459Z,86.34
2023-04-17T02:50:04.932Z,86.44
2023-04-17T02:51:01.645Z,86.29
2023-04-17T02:51:58.479Z,86.33
2023-04-17T02:52:55.088Z,86.28
2023-04-17T02:53:51.664Z,86.21
2023-04-17T02:54:48.466Z,86.37
2023-04-17T02:55:45.222Z,86.36
2023-04-17T02:56:41.789Z,87.04
2023-04-17T02:57:38.392Z,87.46
2023-04-17T02:58:35.042Z,86.96
2023-04-17T02:59:31.774Z,87.03
2023-04-17T03:00:29.195Z,86.03
2023-04-17T03:01:26.408Z,85.21
2023-04-17T03:02:23.469Z,86.23
2023-04-17T03:03:20.456Z,86.46
2023-04-17T03:04:17.137Z,86.36
2023-04-17T03:05:15.047Z,87.01
2023-04-17T03:06:11.684Z,87.13
2023-04-17T03:07:10.406Z,86.95
2023-04-17T03:08:07.258Z,87.08
2023-04-17T03:09:03.980Z,86.88
2023-04-17T03:10:00.573Z,86.60
2023-04-17T03:10:57.154Z,86.94
2023-04-17T03:11:53.762Z,87.79
2023-04-17T03:12:50.775Z,88.01
2023-04-17T03:13:47.375Z,87.95
2023-04-17T03:14:44.257Z,88.01
2023-04-17T03:15:41.267Z,88.06
2023-04-17T03:16:37.858Z,87.80
2023-04-17T03:17:34.559Z,87.45
2023-04-17T03:18:31.978Z,87.96
2023-04-17T03:19:28.575Z,87.58
2023-04-17T03:20:25.208Z,87.54
2023-04-17T03:21:21.790Z,87.63
2023-04-17T03:22:18.539Z,87.41
2023-04-17T03:23:15.452Z,87.40
2023-04-17T03:24:12.867Z,87.21
2023-04-17T03:25:10.050Z,86.96
2023-04-17T03:26:06.672Z,86.87
2023-04-17T03:27:03.347Z,87.22
2023-04-17T03:27:59.966Z,87.58
2023-04-17T03:28:56.627Z,87.92
2023-04-17T03:29:55.539Z,87.83
2023-04-17T03:30:52.219Z,87.94
2023-04-17T03:31:48.893Z,88.02
2023-04-17T03:32:45.526Z,87.72
2023-04-17T03:33:42.195Z,87.43
2023-04-17T03:34:38.849Z,87.62
2023-04-17T03:35:35.526Z,88.01
2023-04-17T03:36:32.553Z,87.56
2023-04-17T03:37:29.158Z,87.54
2023-04-17T03:38:25.803Z,87.79
2023-04-17T03:39:22.478Z,88.20
2023-04-17T03:40:19.083Z,87.90
2023-04-17T03:41:15.786Z,87.76
2023-04-17T03:42:14.783Z,87.59
2023-04-17T03:43:11.488Z,86.79
2023-04-17T03:44:09.211Z,86.73
2023-04-17T03:45:06.413Z,87.08
2023-04-17T03:46:03.016Z,87.02
2023-04-17T03:46:59.624Z,87.26
2023-04-17T03:47:56.322Z,86.97
2023-04-17T03:48:52.949Z,87.10
2023-04-17T03:49:49.551Z,86.36
2023-04-17T03:50:46.226Z,86.64
2023-04-17T03:51:42.917Z,87.17
2023-04-17T03:52:39.469Z,86.62
2023-04-17T03:53:36.235Z,86.68
2023-04-17T03:54:35.688Z,86.45
2023-04-17T03:55:32.723Z,86.88
2023-04-17T03:56:29.297Z,86.26
2023-04-17T03:57:26.463Z,86.04
2023-04-17T03:58:23.026Z,86.31
2023-04-17T03:59:19.647Z,86.38
2023-04-17T04:00:16.804Z,86.00
2023-04-17T04:01:14.606Z,86.04
2023-04-17T04:02:11.393Z,86.10
2023-04-17T04:03:08.184Z,84.88
2023-04-17T04:04:05.210Z,85.58
2023-04-17T04:05:02.061Z,85.18
2023-04-17T04:05:58.760Z,85.42
2023-04-17T04:06:57.576Z,85.71
2023-04-17T04:07:54.456Z,86.09
2023-04-17T04:08:51.555Z,86.15
2023-04-17T04:09:48.169Z,85.39
2023-04-17T04:10:45.405Z,84.59
2023-04-17T04:11:41.990Z,84.88
2023-04-17T04:12:38.582Z,84.67
2023-04-17T04:13:35.322Z,84.52
2023-04-17T04:14:31.947Z,84.70
2023-04-17T04:15:28.563Z,84.80
2023-04-17T04:16:25.219Z,84.42
2023-04-17T04:17:21.916Z,84.57
2023-04-17T04:18:18.770Z,85.12
2023-04-17T04:19:15.481Z,85.46
2023-04-17T04:20:12.150Z,86.12
2023-04-17T04:21:08.823Z,86.85
2023-04-17T04:22:06.903Z,86.92
2023-04-17T04:23:04.679Z,85.92
2023-04-17T04:24:02.717Z,85.64
2023-04-17T04:24:59.438Z,85.48
2023-04-17T04:26:01.705Z,85.75
2023-04-17T04:27:04.476Z,85.66
2023-04-17T04:28:02.257Z,86.46
2023-04-17T04:29:00.158Z,86.25
2023-04-17T04:29:58.934Z,86.63
2023-04-17T04:30:55.837Z,85.93
2023-04-17T04:31:52.853Z,85.63
2023-04-17T04:32:49.594Z,85.45
2023-04-17T04:33:46.566Z,85.33
2023-04-17T04:34:44.670Z,85.12
2023-04-17T04:35:41.921Z,85.07
2023-04-17T04:36:50.309Z,84.40
2023-04-17T04:37:46.903Z,84.40
2023-04-17T04:38:43.506Z,84.59
2023-04-17T04:39:40.162Z,83.96
2023-04-17T04:40:38.454Z,83.57
2023-04-17T04:41:35.098Z,82.94
2023-04-17T04:42:31.826Z,82.50
2023-04-17T04:43:33.576Z,82.71
2023-04-17T04:44:30.277Z,83.08
2023-04-17T04:45:26.927Z,82.81
2023-04-17T04:46:23.512Z,83.28
2023-04-17T04:47:20.404Z,83.38
2023-04-17T04:48:17.022Z,83.47
2023-04-17T04:49:13.773Z,83.79
2023-04-17T04:50:10.748Z,83.78
2023-04-17T04:51:07.555Z,82.91
2023-04-17T04:52:04.240Z,83.49
2023-04-17T04:53:00.870Z,83.43
2023-04-17T04:53:57.560Z,83.29
2023-04-17T04:54:54.287Z,84.34
2023-04-17T04:55:50.884Z,83.74
2023-04-17T04:56:47.420Z,84.34
2023-04-17T04:57:43.967Z,84.02
2023-04-17T04:58:40.586Z,83.69
2023-04-17T04:59:38.961Z,83.27
2023-04-17T05:00:35.756Z,82.62
2023-04-17T05:01:32.793Z,82.48
2023-04-17T05:02:29.667Z,81.27
2023-04-17T05:03:26.456Z,81.22
2023-04-17T05:04:23.723Z,82.23
2023-04-17T05:05:20.617Z,82.63
2023-04-17T05:06:17.245Z,82.67
2023-04-17T05:07:13.994Z,83.59
2023-04-17T05:08:10.666Z,82.75
2023-04-17T05:09:07.421Z,83.87
2023-04-17T05:10:06.358Z,83.83
2023-04-17T05:11:03.695Z,82.29
2023-04-17T05:12:00.305Z,81.99
2023-04-17T05:12:56.899Z,82.77
2023-04-17T05:13:53.504Z,82.44
2023-04-17T05:14:50.162Z,81.75
2023-04-17T05:15:46.780Z,80.96
2023-04-17T05:16:43.403Z,81.56
2023-04-17T05:17:40.171Z,81.63
2023-04-17T05:18:36.810Z,81.02
2023-04-17T05:19:33.526Z,81.08
2023-04-17T05:20:30.822Z,80.29
2023-04-17T05:21:29.239Z,80.02
2023-04-17T05:22:27.615Z,80.76
2023-04-17T05:23:24.279Z,81.79
2023-04-17T05:24:20.898Z,82.76
2023-04-17T05:25:19.734Z,83.01
2023-04-17T05:26:16.617Z,83.62
2023-04-17T05:27:13.206Z,84.39
2023-04-17T05:28:09.793Z,83.87
2023-04-17T05:29:06.670Z,83.18
2023-04-17T05:30:03.852Z,80.89
2023-04-17T05:31:00.774Z,80.60
2023-04-17T05:31:57.557Z,79.99
2023-04-17T05:32:54.551Z,78.89
2023-04-17T05:33:51.221Z,78.05
2023-04-17T05:34:47.997Z,78.93
2023-04-17T05:35:44.655Z,80.05
2023-04-17T05:36:41.372Z,81.13
2023-04-17T05:37:38.038Z,81.27
2023-04-17T05:38:34.677Z,81.50
2023-04-17T05:39:31.242Z,80.78
2023-04-17T05:40:27.887Z,80.64
2023-04-17T05:41:24.677Z,80.53
2023-04-17T05:42:21.292Z,80.90
2023-04-17T05:43:17.904Z,80.29
2023-04-17T05:44:14.470Z,78.91
2023-04-17T05:45:18.397Z,78.53
2023-04-17T05:46:15.058Z,78.85
2023-04-17T05:47:11.670Z,79.21
2023-04-17T05:48:08.533Z,77.52
2023-04-17T05:49:05.122Z,77.10
2023-04-17T05:50:01.799Z,77.02
2023-04-17T05:50:58.463Z,77.26
2023-04-17T05:51:55.169Z,74.72
2023-04-17T05:52:52.080Z,74.10
2023-04-17T05:53:48.854Z,75.34
2023-04-17T05:54:45.654Z,75.94
2023-04-17T05:55:42.330Z,76.88
2023-04-17T05:56:39.362Z,76.74
2023-04-17T05:57:36.467Z,76.80
2023-04-17T05:58:33.163Z,76.55
2023-04-17T05:59:29.765Z,74.94
2023-04-17T06:00:26.327Z,74.31
2023-04-17T06:01:23.073Z,74.98
2023-04-17T06:02:19.788Z,73.09
2023-04-17T06:03:18.308Z,73.40
2023-04-17T06:04:15.598Z,73.97
2023-04-17T06:05:14.254Z,75.21
2023-04-17T06:06:11.434Z,75.84
2023-04-17T06:07:08.326Z,77.01
2023-04-17T06:08:05.083Z,76.41
2023-04-17T06:09:02.368Z,75.69
2023-04-17T06:09:59.494Z,73.60
2023-04-17T06:10:56.423Z,73.00
2023-04-17T06:11:53.020Z,73.32
2023-04-17T06:12:49.756Z,73.28
2023-04-17T06:13:46.929Z,73.43
2023-04-17T06:14:43.867Z,73.73
2023-04-17T06:15:40.554Z,74.33
2023-04-17T06:16:37.277Z,70.94
2023-04-17T06:17:33.941Z,71.81
2023-04-17T06:18:30.648Z,72.25
2023-04-17T06:19:27.335Z,71.51
2023-04-17T06:20:24.058Z,70.60
2023-04-17T06:21:21.287Z,69.87
2023-04-17T06:22:17.898Z,71.12
2023-04-17T06:23:14.582Z,71.30
2023-04-17T06:24:11.246Z,71.18
2023-04-17T06:25:08.270Z,71.30
2023-04-17T06:26:04.942Z,70.65
2023-04-17T06:27:02.105Z,71.41
2023-04-17T06:27:58.647Z,70.83
2023-04-17T06:28:55.820Z,70.99
2023-04-17T06:29:52.406Z,71.55
2023-04-17T06:30:49.030Z,71.28
2023-04-17T06:31:46.349Z,70.19
2023-04-17T06:32:43.541Z,71.00
2023-04-17T06:33:40.298Z,72.18
2023-04-17T06:34:43.477Z,73.22
2023-04-17T06:35:48.979Z,72.73
2023-04-17T06:36:45.661Z,74.06
2023-04-17T06:37:42.389Z,72.86
2023-04-17T06:38:38.932Z,74.31
2023-04-17T06:39:35.600Z,74.41
2023-04-17T06:40:33.110Z,74.28
2023-04-17T06:41:29.966Z,73.75
2023-04-17T06:42:26.576Z,72.94
2023-04-17T06:43:23.276Z,72.02
2023-04-17T06:44:19.903Z,70.58
2023-04-17T06:45:16.707Z,72.32
2023-04-17T06:46:13.389Z,73.94
2023-04-17T06:47:10.033Z,73.30
2023-04-17T06:48:06.777Z,73.63
2023-04-17T06:49:03.435Z,73.70
2023-04-17T06:50:00.036Z,74.11
2023-04-17T06:50:56.675Z,74.76
2023-04-17T06:51:53.303Z,75.21
2023-04-17T06:52:49.920Z,74.61
2023-04-17T06:53:50.092Z,73.53
2023-04-17T06:54:46.652Z,73.62
2023-04-17T06:55:43.358Z,73.33
2023-04-17T06:56:40.910Z,71.06
2023-04-17T06:57:38.296Z,70.53
2023-04-17T06:58:42.319Z,69.90
2023-04-17T06:59:39.104Z,70.54
2023-04-17T07:00:35.943Z,71.48
2023-04-17T07:01:32.845Z,69.39
2023-04-17T07:02:29.620Z,69.54
2023-04-17T07:03:26.492Z,71.33
2023-04-17T07:04:23.332Z,70.18
2023-04-17T07:05:19.950Z,69.24
2023-04-17T07:06:17.083Z,69.17
2023-04-17T07:07:13.706Z,69.14
2023-04-17T07:08:10.452Z,70.51
2023-04-17T07:09:07.202Z,71.36
2023-04-17T07:10:04.604Z,70.32
2023-04-17T07:11:01.925Z,70.93
2023-04-17T07:11:58.628Z,70.04
2023-04-17T07:12:55.323Z,70.61
2023-04-17T07:13:52.048Z,69.68
2023-04-17T07:14:48.724Z,71.08
2023-04-17T07:15:45.423Z,70.49
2023-04-17T07:16:42.227Z,68.21
2023-04-17T07:17:39.000Z,67.83
2023-04-17T07:18:35.750Z,69.08
2023-04-17T07:19:35.352Z,69.62
2023-04-17T07:20:32.026Z,69.67
2023-04-17T07:21:28.879Z,66.83
2023-04-17T07:22:27.231Z,67.85
2023-04-17T07:23:24.081Z,68.66
2023-04-17T07:24:20.681Z,68.73
2023-04-17T07:25:17.306Z,66.67
2023-04-17T07:26:13.911Z,65.13
2023-04-17T07:27:11.091Z,66.55
2023-04-17T07:28:07.896Z,66.85
2023-04-17T07:29:04.588Z,68.38
2023-04-17T07:30:01.356Z,68.44
2023-04-17T07:30:58.252Z,69.43
2023-04-17T07:31:55.074Z,69.65
2023-04-17T07:32:52.512Z,68.55
2023-04-17T07:33:49.351Z,68.11
2023-04-17T07:34:46.106Z,69.00
2023-04-17T07:35:43.498Z,67.86
2023-04-17T07:36:40.105Z,68.21
2023-04-17T07:37:37.196Z,68.82
2023-04-17T07:38:34.135Z,68.43
2023-04-17T07:39:31.728Z,69.02
2023-04-17T07:40:28.470Z,70.39
2023-04-17T07:41:25.562Z,69.70
2023-04-17T07:42:22.268Z,69.68
2023-04-17T07:43:18.982Z,69.27
2023-04-17T07:44:16.164Z,69.80
2023-04-17T07:45:12.820Z,70.27
2023-04-17T07:46:09.414Z,69.12
2023-04-17T07:47:06.154Z,69.03
2023-04-17T07:48:04.495Z,69.66
2023-04-17T07:49:01.182Z,67.93
2023-04-17T07:49:58.056Z,66.34
2023-04-17T07:50:54.776Z,67.50
2023-04-17T07:51:51.352Z,68.12
2023-04-17T07:52:47.952Z,67.45
2023-04-17T07:53:44.538Z,66.53
2023-04-17T07:54:41.114Z,66.62
2023-04-17T07:55:37.742Z,64.23
2023-04-17T07:56:34.673Z,64.52
2023-04-17T07:57:32.957Z,64.05
2023-04-17T07:58:29.598Z,65.78
2023-04-17T07:59:26.286Z,64.79
2023-04-17T08:00:24.088Z,64.91
2023-04-17T08:01:23.417Z,65.66
2023-04-17T08:02:21.285Z,65.81
2023-04-17T08:03:22.422Z,65.40
2023-04-17T08:04:19.447Z,65.65
2023-04-17T08:05:16.283Z,64.32
2023-04-17T08:06:12.934Z,65.90
2023-04-17T08:07:11.144Z,66.09
2023-04-17T08:08:08.025Z,65.17
2023-04-17T08:09:04.723Z,63.36
2023-04-17T08:10:01.324Z,63.47
2023-04-17T08:10:58.028Z,64.33
2023-04-17T08:11:57.863Z,64.45
2023-04-17T08:12:55.601Z,64.38
2023-04-17T08:13:52.232Z,64.45
2023-04-17T08:14:48.932Z,64.55
2023-04-17T08:15:45.902Z,65.32
2023-04-17T08:16:42.604Z,63.75
2023-04-17T08:17:39.263Z,64.71
2023-04-17T08:18:37.759Z,64.55
2023-04-17T08:19:34.659Z,65.24
2023-04-17T08:20:31.390Z,63.28
2023-04-17T08:21:28.017Z,63.97
2023-04-17T08:22:28.830Z,64.97
2023-04-17T08:23:25.998Z,65.14
2023-04-17T08:24:22.664Z,62.74
2023-04-17T08:25:19.381Z,63.18
2023-04-17T08:26:19.090Z,62.29
2023-04-17T08:27:16.040Z,63.56
2023-04-17T08:28:12.720Z,63.49
2023-04-17T08:29:09.436Z,62.50
2023-04-17T08:30:09.527Z,60.71
2023-04-17T08:31:08.788Z,62.46
2023-04-17T08:32:13.425Z,63.19
2023-04-17T08:33:13.474Z,61.91
2023-04-17T08:34:15.053Z,64.17
2023-04-17T08:35:13.970Z,62.67
2023-04-17T08:36:11.306Z,61.05
2023-04-17T08:37:08.043Z,62.30
2023-04-17T08:38:04.894Z,63.10
2023-04-17T08:39:01.882Z,63.71
2023-04-17T08:39:58.523Z,63.95
2023-04-17T08:41:02.652Z,63.84
2023-04-17T08:42:01.105Z,62.30
2023-04-17T08:43:00.315Z,62.99
2023-04-17T08:43:59.840Z,64.25
2023-04-17T08:45:01.870Z,65.78
2023-04-17T08:45:58.650Z,65.46
2023-04-17T08:46:58.761Z,64.38
2023-04-17T08:47:55.508Z,65.46
2023-04-17T08:48:52.372Z,65.80
2023-04-17T08:49:50.588Z,65.43
2023-04-17T08:50:49.249Z,65.74
2023-04-17T08:51:47.171Z,66.63
2023-04-17T08:52:46.554Z,66.34
2023-04-17T08:53:43.529Z,64.44
2023-04-17T08:54:40.404Z,64.55
2023-04-17T08:55:37.108Z,64.41
2023-04-17T08:56:33.706Z,64.92
2023-04-17T08:57:30.446Z,65.87
2023-04-17T08:58:32.060Z,65.45
2023-04-17T08:59:28.794Z,64.34
2023-04-17T09:00:56.012Z,63.67
2023-04-17T09:02:08.983Z,62.06
2023-04-17T09:03:08.273Z,60.39
2023-04-17T09:04:05.578Z,60.52
2023-04-17T09:05:02.732Z,62.95
2023-04-17T09:05:59.682Z,61.88
2023-04-17T09:06:56.350Z,62.26
2023-04-17T09:08:21.818Z,63.57
2023-04-17T09:09:18.407Z,61.03
2023-04-17T09:10:15.010Z,60.32
2023-04-17T09:11:17.861Z,60.63
2023-04-17T09:12:14.608Z,62.34
2023-04-17T09:13:14.794Z,60.53
2023-04-17T09:14:30.602Z,62.14
2023-04-17T09:15:27.561Z,62.77
2023-04-17T09:16:28.503Z,63.58
2023-04-17T09:17:34.428Z,63.29
2023-04-17T09:18:32.360Z,63.07
2023-04-17T09:19:28.873Z,60.76
2023-04-17T09:20:25.554Z,63.72
2023-04-17T09:21:28.345Z,64.61
2023-04-17T09:22:24.919Z,66.25
2023-04-17T09:23:23.444Z,68.57
2023-04-17T09:24:33.578Z,71.39
2023-04-17T09:25:30.371Z,73.95
2023-04-17T09:26:31.092Z,73.65
2023-04-17T09:27:29.358Z,76.31
2023-04-17T09:28:26.386Z,74.32
2023-04-17T09:29:23.125Z,76.64
2023-04-17T09:30:20.421Z,76.44
2023-04-17T09:31:19.955Z,76.07
2023-04-17T09:32:16.695Z,75.86
2023-04-17T09:33:13.255Z,75.09
2023-04-17T09:34:12.149Z,72.92
2023-04-17T09:35:09.041Z,72.36
2023-04-17T09:36:21.924Z,72.75
2023-04-17T09:37:19.439Z,67.42
2023-04-17T09:38:16.172Z,66.41
2023-04-17T09:39:21.220Z,67.25
2023-04-17T09:40:19.524Z,68.86
2023-04-17T09:41:42.588Z,67.93
2023-04-17T09:42:54.273Z,67.30
2023-04-17T09:43:54.783Z,67.03
2023-04-17T09:44:54.079Z,66.85
2023-04-17T09:45:53.213Z,65.54
2023-04-17T09:46:50.857Z,65.92
2023-04-17T09:47:48.089Z,65.61
2023-04-17T09:48:46.090Z,65.13
2023-04-17T09:49:49.794Z,64.76
2023-04-17T09:50:47.675Z,63.94
2023-04-17T09:51:45.064Z,64.54
2023-04-17T09:52:43.690Z,63.68
2023-04-17T09:53:40.840Z,63.87
2023-04-17T09:54:40.202Z,66.80
2023-04-17T09:55:38.876Z,67.29
2023-04-17T09:56:37.752Z,66.55
2023-04-17T09:57:34.465Z,64.76
2023-04-17T09:58:31.169Z,63.90
2023-04-17T09:59:28.731Z,65.02
2023-04-17T10:00:27.834Z,68.39
2023-04-17T10:01:26.181Z,66.42
2023-04-17T10:02:23.347Z,66.02
2023-04-17T10:03:20.883Z,66.02
2023-04-17T10:04:19.568Z,65.02
2023-04-17T10:05:17.656Z,65.80
2023-04-17T10:06:15.544Z,68.23
2023-04-17T10:07:13.268Z,70.70
2023-04-17T10:08:10.002Z,70.98
2023-04-17T10:09:08.232Z,69.48
2023-04-17T10:10:09.450Z,70.28
2023-04-17T10:11:07.634Z,70.53
2023-04-17T10:12:05.526Z,69.56
2023-04-17T10:13:08.303Z,67.85
2023-04-17T10:14:17.941Z,69.07
2023-04-17T10:15:16.007Z,68.49
2023-04-17T10:16:13.080Z,69.35
2023-04-17T10:17:31.863Z,72.06
2023-04-17T10:18:28.984Z,70.97
2023-04-17T10:19:27.629Z,68.82
2023-04-17T10:20:24.395Z,66.61
2023-04-17T10:21:23.248Z,67.50
2023-04-17T10:22:19.898Z,67.25
2023-04-17T10:23:46.418Z,67.22
2023-04-17T10:24:43.417Z,69.17
2023-04-17T10:25:40.070Z,68.57
2023-04-17T10:26:37.855Z,69.58
2023-04-17T10:27:42.854Z,68.14
2023-04-17T10:28:50.417Z,68.37
2023-04-17T10:29:58.405Z,68.92
2023-04-17T10:30:55.574Z,69.34
2023-04-17T10:32:11.028Z,66.22
2023-04-17T10:33:22.010Z,67.83
2023-04-17T10:34:35.281Z,67.89
2023-04-17T10:35:35.052Z,66.11
2023-04-17T10:36:40.802Z,64.85
2023-04-17T10:37:52.746Z,64.93
2023-04-17T10:38:49.461Z,65.70
2023-04-17T10:40:10.533Z,65.10
2023-04-17T10:41:09.464Z,66.70
2023-04-17T10:42:06.827Z,67.35
2023-04-17T10:43:20.493Z,67.47
2023-04-17T10:44:18.427Z,67.39
2023-04-17T10:45:19.327Z,65.36
2023-04-17T10:46:16.135Z,64.96
2023-04-17T10:47:16.000Z,66.32
2023-04-17T10:48:28.211Z,67.60
2023-04-17T10:49:24.957Z,65.81
2023-04-17T10:50:28.637Z,64.85
2023-04-17T10:51:27.128Z,64.25
2023-04-17T10:52:32.994Z,64.57
2023-04-17T10:53:43.459Z,65.45
2023-04-17T10:55:08.127Z,66.87
2023-04-17T10:56:05.448Z,65.17
2023-04-17T10:57:07.853Z,65.56
2023-04-17T10:58:13.822Z,67.12
2023-04-17T10:59:14.479Z,66.89
2023-04-17T11:00:13.933Z,65.96
2023-04-17T11:01:11.473Z,64.58
2023-04-17T11:02:08.318Z,63.41
2023-04-17T11:03:07.072Z,64.74
2023-04-17T11:04:04.887Z,65.85
2023-04-17T11:05:11.129Z,66.29
2023-04-17T11:06:08.078Z,67.57
2023-04-17T11:07:04.807Z,66.93
2023-04-17T11:08:01.629Z,67.16
2023-04-17T11:08:59.619Z,65.08
2023-04-17T11:09:56.259Z,65.56
2023-04-17T11:10:54.302Z,63.85
2023-04-17T11:11:51.124Z,63.51
2023-04-17T11:12:49.024Z,62.58
2023-04-17T11:13:47.145Z,62.24
2023-04-17T11:14:43.825Z,64.16
2023-04-17T11:15:40.705Z,64.40
2023-04-17T11:16:38.989Z,62.52
2023-04-17T11:17:38.560Z,62.28
2023-04-17T11:18:35.213Z,62.90
2023-04-17T11:19:32.450Z,62.08
2023-04-17T11:20:35.857Z,62.38
2023-04-17T11:21:33.409Z,60.30
2023-04-17T11:22:34.027Z,61.43
2023-04-17T11:23:34.098Z,58.84
2023-04-17T11:24:32.003Z,60.80
2023-04-17T11:25:33.931Z,59.02
2023-04-17T11:26:31.037Z,57.16
2023-04-17T11:27:27.932Z,58.81
2023-04-17T11:28:24.533Z,58.51
2023-04-17T11:29:22.850Z,59.71
2023-04-17T11:30:32.478Z,57.14
2023-04-17T11:31:29.186Z,56.51
2023-04-17T11:32:26.026Z,60.93
2023-04-17T11:33:22.703Z,62.54
2023-04-17T11:34:20.489Z,61.76
2023-04-17T11:35:17.187Z,61.13
2023-04-17T11:36:13.906Z,62.25
2023-04-17T11:37:14.176Z,61.86
2023-04-17T11:38:23.740Z,62.58
2023-04-17T11:39:22.767Z,64.87
2023-04-17T11:40:22.912Z,64.86
2023-04-17T11:41:19.527Z,64.65
2023-04-17T11:42:26.640Z,63.69
2023-04-17T11:43:23.942Z,64.43
2023-04-17T11:44:21.265Z,64.86
2023-04-17T11:45:19.872Z,66.82
2023-04-17T11:46:19.291Z,66.27
2023-04-17T11:47:15.952Z,66.84
2023-04-17T11:48:14.705Z,68.35
2023-04-17T11:49:11.893Z,68.55
2023-04-17T11:50:09.023Z,68.72
2023-04-17T11:51:06.722Z,67.80
2023-04-17T11:52:04.746Z,69.21
2023-04-17T11:53:02.859Z,67.10
2023-04-17T11:53:59.958Z,68.11
2023-04-17T11:54:59.510Z,67.74
2023-04-17T11:56:16.488Z,68.07
2023-04-17T11:57:14.550Z,67.14
2023-04-17T11:58:13.832Z,67.22
2023-04-17T11:59:11.065Z,66.50
2023-04-17T12:00:15.174Z,65.86
2023-04-17T12:01:13.208Z,65.91
2023-04-17T12:02:10.180Z,66.17
2023-04-17T12:03:35.708Z,67.38
2023-04-17T12:04:34.827Z,68.07
2023-04-17T12:05:31.999Z,66.19
2023-04-17T12:06:38.563Z,68.64
2023-04-17T12:07:35.418Z,68.04
2023-04-17T12:08:43.117Z,68.00
2023-04-17T12:09:39.850Z,66.98
2023-04-17T12:10:44.099Z,67.57
2023-04-17T12:11:40.687Z,66.59
2023-04-17T12:12:37.247Z,65.99
2023-04-17T12:13:35.553Z,66.24
2023-04-17T12:14:32.589Z,66.73
2023-04-17T12:15:29.275Z,67.04
2023-04-17T12:16:27.925Z,67.25
2023-04-17T12:17:24.695Z,64.67
2023-04-17T12:18:21.282Z,66.69
2023-04-17T12:19:19.877Z,65.38
2023-04-17T12:20:16.689Z,64.29
2023-04-17T12:21:13.998Z,64.22
2023-04-17T12:22:10.594Z,64.09
2023-04-17T12:23:07.274Z,65.69
2023-04-17T12:24:04.014Z,65.67
2023-04-17T12:25:00.877Z,62.85
2023-04-17T12:25:57.534Z,63.56
2023-04-17T12:26:54.673Z,65.38
2023-04-17T12:27:51.462Z,66.01
2023-04-17T12:28:48.201Z,64.25